« Back
NWS Peachtree City, Ga » Text Product » ATL Terminal Aerodrome Forecast


Printer-friendly Version
Current Version              Previous Versions:   1  2  3  4  5  6  7  8  9  

Terminal Aerodrome Forecast

978
FTUS42 KFFC 240524
TAFATL
TAF
KATL 240524Z 2406/2512 20011KT P6SM OVC015
     FM240800 22010KT 6SM BR OVC007
     FM241400 24012G20KT P6SM BKN015 OVC030
     FM241700 25014G24KT P6SM BKN035
     FM242100 27012G21KT P6SM SCT040
     FM250000 30010KT P6SM SCT080=



USA.gov is the U.S. government's official web portal to all federal, state and local government web resources and services.